Time;durP1;ratioP1;P1;durP2;ratioP2;P2;SDS_P1;SDS_P2;PMS_P1;PMS_P2;Temp;Humidity;BMP_temperature;BMP_pressure;BME280_temperature;BME280_humidity;BME280_pressure;Samples;Min_cycle;Max_cycle;Signal;HPM_P1;HPM_P2
2021/07/03 00:01:50;;;;;;;23.83;14.73;;;17.70;88.20;;;;;;3562282;40;20122;-67
2021/07/03 00:04:16;;;;;;;18.08;13.68;;;17.60;88.20;;;;;;3561025;40;20942;-66
2021/07/03 00:06:42;;;;;;;20.30;13.77;;;17.70;88.40;;;;;;3559863;40;20025;-67
2021/07/03 00:09:07;;;;;;;25.58;14.93;;;17.60;88.50;;;;;;3561107;40;20047;-66
2021/07/03 00:11:35;;;;;;;20.42;14.27;;;17.60;88.40;;;;;;3562292;40;20110;-66
2021/07/03 00:14:01;;;;;;;18.25;13.45;;;17.70;88.50;;;;;;3564032;40;20190;-67
2021/07/03 00:16:27;;;;;;;19.30;14.02;;;17.60;88.40;;;;;;3565904;40;20025;-68
2021/07/03 00:18:52;;;;;;;20.58;14.32;;;17.60;88.30;;;;;;3563452;40;20053;-75
2021/07/03 00:21:18;;;;;;;21.08;14.07;;;17.60;88.30;;;;;;3561880;40;20789;-75
2021/07/03 00:23:44;;;;;;;19.48;13.95;;;17.60;88.50;;;;;;3569422;40;20040;-75
2021/07/03 00:26:09;;;;;;;23.05;14.85;;;17.50;88.60;;;;;;3567795;40;20029;-75
2021/07/03 00:28:36;;;;;;;21.10;14.80;;;17.50;88.60;;;;;;3564685;40;20030;-75
2021/07/03 00:31:03;;;;;;;24.02;14.77;;;17.50;88.70;;;;;;3564413;40;20029;-75
2021/07/03 00:33:28;;;;;;;20.52;14.40;;;17.50;88.70;;;;;;3565600;40;20623;-75
2021/07/03 00:35:54;;;;;;;23.48;15.48;;;17.50;88.70;;;;;;3564303;40;20139;-75
2021/07/03 00:38:20;;;;;;;19.45;14.25;;;17.40;89.40;;;;;;3564395;40;20044;-74
2021/07/03 00:40:45;;;;;;;21.92;14.75;;;17.40;88.80;;;;;;3564032;40;20026;-75
2021/07/03 00:43:12;;;;;;;23.23;15.05;;;17.40;88.90;;;;;;3561665;40;20025;-75
2021/07/03 00:45:39;;;;;;;21.70;14.50;;;17.40;88.70;;;;;;3563057;40;20033;-75
2021/07/03 00:48:05;;;;;;;21.52;14.98;;;17.40;88.80;;;;;;3567113;40;20041;-75
2021/07/03 00:50:31;;;;;;;21.38;14.18;;;17.30;88.60;;;;;;3564583;40;20565;-75
2021/07/03 00:52:57;;;;;;;22.38;15.50;;;17.30;88.50;;;;;;3563864;40;20039;-75
2021/07/03 00:55:26;;;;;;;19.73;14.10;;;17.30;88.70;;;;;;3559806;40;20045;-75
2021/07/03 00:57:54;;;;;;;22.15;15.27;;;17.30;88.80;;;;;;3561679;40;20327;-75
2021/07/03 01:00:23;;;;;;;22.83;15.00;;;17.20;89.10;;;;;;3565165;40;20032;-75
2021/07/03 01:02:50;;;;;;;22.55;15.60;;;17.20;89.40;;;;;;3563479;40;20121;-75
2021/07/03 01:05:16;;;;;;;24.63;15.73;;;17.20;89.70;;;;;;3563363;40;20076;-75
2021/07/03 01:07:43;;;;;;;21.15;15.05;;;17.20;89.70;;;;;;3563016;40;20049;-75
2021/07/03 01:10:19;;;;;;;22.15;16.05;;;17.20;89.90;;;;;;3559663;40;20668;-75
2021/07/03 01:12:45;;;;;;;23.52;15.60;;;17.20;90.00;;;;;;3564659;40;20029;-75
2021/07/03 01:15:13;;;;;;;23.52;15.57;;;17.10;90.30;;;;;;3563690;40;20037;-75
2021/07/03 01:17:39;;;;;;;18.70;14.32;;;17.10;90.00;;;;;;3563345;40;20160;-75
2021/07/03 01:20:06;;;;;;;21.83;15.45;;;17.10;90.00;;;;;;3563244;40;20052;-74
2021/07/03 01:22:32;;;;;;;21.83;15.75;;;17.20;90.00;;;;;;3563498;40;20044;-76
2021/07/03 01:24:58;;;;;;;23.23;16.42;;;17.10;89.80;;;;;;3562314;40;20092;-75
2021/07/03 01:27:24;;;;;;;22.77;16.42;;;17.20;89.90;;;;;;3563061;40;20158;-75
2021/07/03 01:29:50;;;;;;;24.00;17.00;;;17.20;90.00;;;;;;3559342;40;20041;-75
2021/07/03 01:32:16;;;;;;;22.75;15.57;;;17.20;89.80;;;;;;3561079;40;20028;-76
2021/07/03 01:34:44;;;;;;;23.08;16.80;;;17.30;89.80;;;;;;3563372;40;20077;-75
2021/07/03 01:37:18;;;;;;;20.10;15.43;;;17.30;89.80;;;;;;3564480;40;20033;-75
2021/07/03 01:39:50;;;;;;;25.13;17.55;;;17.30;90.00;;;;;;3561793;40;20143;-75
2021/07/03 01:42:17;;;;;;;24.23;17.05;;;17.40;90.10;;;;;;3561571;40;20073;-75
2021/07/03 01:44:44;;;;;;;25.33;17.20;;;17.40;90.10;;;;;;3567692;40;20623;-75
2021/07/03 01:47:10;;;;;;;25.27;17.33;;;17.40;90.10;;;;;;3566427;40;20847;-75
2021/07/03 01:49:39;;;;;;;28.30;18.50;;;17.40;90.00;;;;;;3560079;40;20026;-75
2021/07/03 01:52:07;;;;;;;29.83;18.42;;;17.40;90.00;;;;;;3562066;40;20033;-75
2021/07/03 01:54:35;;;;;;;28.67;17.83;;;17.40;90.00;;;;;;3562550;40;20045;-75
2021/07/03 01:57:04;;;;;;;28.25;18.38;;;17.40;90.00;;;;;;3562232;40;20036;-74
2021/07/03 01:59:42;;;;;;;27.38;17.75;;;17.40;89.80;;;;;;3553870;40;20067;-74
2021/07/03 02:02:10;;;;;;;25.08;17.35;;;17.40;89.60;;;;;;3560853;40;20025;-75
2021/07/03 02:04:39;;;;;;;24.35;17.92;;;17.40;89.70;;;;;;3565031;40;20519;-75
2021/07/03 02:07:08;;;;;;;27.98;16.35;;;17.40;89.60;;;;;;3564758;40;20462;-75
2021/07/03 02:09:36;;;;;;;25.10;16.98;;;17.40;89.20;;;;;;3564770;40;20598;-75
2021/07/03 02:12:05;;;;;;;23.27;16.85;;;17.40;89.10;;;;;;3564266;40;20047;-75
2021/07/03 02:15:00;;;;;;;22.55;16.70;;;17.30;88.80;;;;;;3560681;40;20041;-75
2021/07/03 02:17:29;;;;;;;22.45;15.52;;;17.30;88.50;;;;;;3565007;40;20671;-75
2021/07/03 02:19:57;;;;;;;21.40;16.05;;;17.20;88.50;;;;;;3561068;40;20049;-75
2021/07/03 02:22:32;;;;;;;25.05;17.38;;;17.20;88.50;;;;;;3563636;40;20094;-74
2021/07/03 02:24:57;;;;;;;27.38;16.88;;;17.20;88.50;;;;;;3563708;40;20578;-75
2021/07/03 02:27:24;;;;;;;22.85;16.95;;;17.10;88.50;;;;;;3562011;40;20049;-75
2021/07/03 02:29:55;;;;;;;24.77;17.42;;;17.00;88.60;;;;;;3561446;40;20318;-74
2021/07/03 02:32:21;;;;;;;26.10;17.77;;;17.00;88.70;;;;;;3562488;40;20044;-75
2021/07/03 02:34:47;;;;;;;25.63;16.95;;;16.90;89.10;;;;;;3566620;40;20617;-75
2021/07/03 02:37:14;;;;;;;22.50;16.08;;;16.90;89.20;;;;;;3566125;40;20053;-75
2021/07/03 02:39:41;;;;;;;26.38;18.15;;;16.90;89.70;;;;;;3561629;40;20041;-74
2021/07/03 02:42:07;;;;;;;26.02;18.20;;;16.80;90.10;;;;;;3564660;40;20032;-75
2021/07/03 02:44:34;;;;;;;25.80;18.02;;;16.90;90.20;;;;;;3564642;40;20053;-74
2021/07/03 02:47:00;;;;;;;24.63;17.38;;;16.90;90.20;;;;;;3562846;40;20387;-74
2021/07/03 02:49:27;;;;;;;26.50;17.17;;;16.90;90.10;;;;;;3566772;40;20070;-75
2021/07/03 02:51:53;;;;;;;25.00;17.27;;;16.80;90.00;;;;;;3566076;40;20118;-75
2021/07/03 02:54:20;;;;;;;24.75;17.35;;;16.80;90.00;;;;;;3558508;40;20034;-74
2021/07/03 02:56:46;;;;;;;26.17;17.60;;;16.80;90.20;;;;;;3559831;40;20040;-73
2021/07/03 02:59:12;;;;;;;27.55;17.75;;;16.80;90.20;;;;;;3563958;40;20029;-74
2021/07/03 03:01:38;;;;;;;26.50;18.10;;;16.80;90.10;;;;;;3564052;40;20044;-74
2021/07/03 03:04:08;;;;;;;28.10;18.75;;;16.80;90.10;;;;;;3563932;40;20665;-75
2021/07/03 03:06:33;;;;;;;26.08;17.83;;;16.70;89.90;;;;;;3567406;40;20080;-74
2021/07/03 03:09:00;;;;;;;24.52;17.33;;;16.70;90.00;;;;;;3568063;40;20038;-74
2021/07/03 03:11:27;;;;;;;26.25;18.55;;;16.70;90.00;;;;;;3565316;40;20037;-74
2021/07/03 03:13:53;;;;;;;27.75;18.60;;;16.70;90.00;;;;;;3564978;40;20032;-75
2021/07/03 03:16:20;;;;;;;29.83;19.08;;;16.70;89.90;;;;;;3562540;40;20035;-75
2021/07/03 03:18:46;;;;;;;27.75;18.65;;;16.60;90.00;;;;;;3563980;40;20040;-75
2021/07/03 03:21:12;;;;;;;25.15;18.73;;;16.60;90.00;;;;;;3561980;40;20085;-75
2021/07/03 03:23:39;;;;;;;26.80;19.25;;;16.60;90.10;;;;;;3567298;40;20045;-75
2021/07/03 03:26:06;;;;;;;27.55;19.35;;;16.60;90.10;;;;;;3560241;40;20037;-75
2021/07/03 03:28:34;;;;;;;27.25;19.05;;;16.60;90.10;;;;;;3562646;40;20300;-75
2021/07/03 03:31:00;;;;;;;27.45;19.23;;;16.50;90.10;;;;;;3563926;40;20411;-74
2021/07/03 03:33:34;;;;;;;26.92;18.77;;;16.50;90.10;;;;;;3565649;40;20646;-75
2021/07/03 03:36:01;;;;;;;27.50;19.33;;;16.50;90.10;;;;;;3565389;40;20032;-74
2021/07/03 03:38:27;;;;;;;32.92;20.40;;;16.50;90.30;;;;;;3562614;40;20038;-75
2021/07/03 03:40:53;;;;;;;27.40;19.13;;;16.50;90.20;;;;;;3565899;40;20156;-75
2021/07/03 03:43:19;;;;;;;27.45;18.80;;;16.50;90.30;;;;;;3563732;40;20033;-75
2021/07/03 03:45:47;;;;;;;26.38;18.90;;;16.50;90.40;;;;;;3563397;40;20142;-74
2021/07/03 03:48:13;;;;;;;26.73;18.48;;;16.40;90.50;;;;;;3567086;40;20080;-75
2021/07/03 03:50:44;;;;;;;26.92;19.13;;;16.50;90.50;;;;;;3563631;40;20049;-75
2021/07/03 03:53:11;;;;;;;25.85;18.20;;;16.50;90.50;;;;;;3565751;40;20135;-75
2021/07/03 03:55:37;;;;;;;27.85;19.02;;;16.60;90.50;;;;;;3565373;40;20045;-75
2021/07/03 03:58:06;;;;;;;28.13;19.20;;;16.60;90.40;;;;;;3566944;40;20025;-74
2021/07/03 04:00:34;;;;;;;30.25;19.90;;;16.60;90.40;;;;;;3567198;40;20618;-75
2021/07/03 04:03:02;;;;;;;29.70;20.40;;;16.60;90.40;;;;;;3566393;40;20040;-75
2021/07/03 04:05:36;;;;;;;28.00;20.23;;;16.60;90.40;;;;;;3564278;40;20119;-75
2021/07/03 04:08:03;;;;;;;30.25;19.45;;;16.60;90.50;;;;;;3564267;40;20037;-75
2021/07/03 04:10:29;;;;;;;29.30;20.23;;;16.60;90.60;;;;;;3567160;40;20088;-75
2021/07/03 04:12:54;;;;;;;31.23;19.88;;;16.60;90.70;;;;;;3568551;40;20049;-75
2021/07/03 04:15:20;;;;;;;30.52;20.48;;;16.70;90.70;;;;;;3567105;40;20141;-75
2021/07/03 04:17:46;;;;;;;28.80;19.55;;;16.70;90.60;;;;;;3560427;40;20117;-75
2021/07/03 04:20:12;;;;;;;30.15;19.75;;;16.70;90.40;;;;;;3565071;40;20052;-75
2021/07/03 04:22:39;;;;;;;28.25;20.30;;;16.80;90.50;;;;;;3562165;40;20038;-74
2021/07/03 04:25:08;;;;;;;31.80;21.20;;;16.80;90.40;;;;;;3565050;40;20037;-75
2021/07/03 04:27:35;;;;;;;32.08;19.90;;;16.80;90.40;;;;;;3565270;40;20036;-75
2021/07/03 04:30:02;;;;;;;29.20;20.48;;;16.80;90.40;;;;;;3559918;40;20029;-75
2021/07/03 04:32:28;;;;;;;31.63;21.25;;;16.90;90.50;;;;;;3559664;40;20127;-75
2021/07/03 04:34:54;;;;;;;32.63;20.70;;;16.90;90.40;;;;;;3564094;40;20041;-75
2021/07/03 04:37:20;;;;;;;29.75;20.65;;;17.00;90.40;;;;;;3565441;40;20103;-75
2021/07/03 04:39:45;;;;;;;30.02;21.13;;;17.00;90.40;;;;;;3564938;40;20033;-75
2021/07/03 04:42:11;;;;;;;32.58;21.77;;;17.10;90.40;;;;;;3564718;40;20033;-75
2021/07/03 04:44:37;;;;;;;31.08;20.40;;;17.10;90.30;;;;;;3567235;40;20669;-75
2021/07/03 04:47:03;;;;;;;32.10;20.67;;;17.20;90.20;;;;;;3561842;40;20073;-75
2021/07/03 04:49:32;;;;;;;31.58;20.73;;;17.20;90.10;;;;;;3561361;40;20045;-75
2021/07/03 04:51:58;;;;;;;31.83;22.52;;;17.20;90.10;;;;;;3566855;40;20045;-75
2021/07/03 04:54:24;;;;;;;31.85;21.23;;;17.30;90.10;;;;;;3565004;40;20711;-75
2021/07/03 04:56:50;;;;;;;32.75;20.40;;;17.40;90.00;;;;;;3564056;40;20049;-78
2021/07/03 04:59:16;;;;;;;27.65;20.25;;;17.40;90.00;;;;;;3562759;40;20368;-75
2021/07/03 05:01:42;;;;;;;27.48;20.67;;;17.50;89.80;;;;;;3565068;40;20041;-75
2021/07/03 05:04:08;;;;;;;31.05;21.02;;;17.50;89.40;;;;;;3558954;40;20079;-75
2021/07/03 05:06:33;;;;;;;29.63;21.20;;;17.60;89.30;;;;;;3560135;40;20044;-75
2021/07/03 05:08:59;;;;;;;34.17;21.48;;;17.60;89.20;;;;;;3563262;40;20407;-76
2021/07/03 05:11:25;;;;;;;33.33;21.92;;;17.70;88.90;;;;;;3564927;40;20737;-74
2021/07/03 05:13:50;;;;;;;31.83;21.73;;;17.80;88.90;;;;;;3563825;40;20494;-75
2021/07/03 05:16:16;;;;;;;30.10;21.90;;;17.80;89.10;;;;;;3562307;40;20052;-75
2021/07/03 05:18:42;;;;;;;30.42;21.67;;;17.90;89.00;;;;;;3561646;40;20056;-74
2021/07/03 05:21:08;;;;;;;33.13;22.55;;;17.90;89.00;;;;;;3568804;40;20033;-75
2021/07/03 05:23:33;;;;;;;27.27;20.58;;;18.00;88.40;;;;;;3566488;40;20111;-74
2021/07/03 05:25:59;;;;;;;34.35;23.05;;;18.10;88.10;;;;;;3566723;40;20033;-75
2021/07/03 05:28:25;;;;;;;30.15;20.73;;;18.20;87.10;;;;;;3565353;40;20728;-75
2021/07/03 05:30:52;;;;;;;28.88;20.42;;;18.30;86.20;;;;;;3566321;40;20040;-74
2021/07/03 05:33:18;;;;;;;29.58;20.88;;;18.50;85.90;;;;;;3566720;40;20040;-75
2021/07/03 05:35:44;;;;;;;30.17;19.98;;;18.60;85.60;;;;;;3568630;40;20043;-75
2021/07/03 05:38:10;;;;;;;31.48;21.00;;;18.70;85.50;;;;;;3562430;40;20033;-74
2021/07/03 05:40:36;;;;;;;29.70;21.65;;;18.70;84.70;;;;;;3562266;40;20033;-75
2021/07/03 05:43:01;;;;;;;28.13;19.50;;;18.70;84.60;;;;;;3566251;40;20028;-75
2021/07/03 05:45:27;;;;;;;29.40;19.88;;;18.80;84.00;;;;;;3564993;40;20037;-75
2021/07/03 05:47:53;;;;;;;33.15;21.33;;;18.80;83.80;;;;;;3564021;40;20593;-75
2021/07/03 05:50:21;;;;;;;29.30;20.38;;;18.90;83.00;;;;;;3560867;40;20830;-75
2021/07/03 05:52:47;;;;;;;25.35;18.73;;;18.90;82.80;;;;;;3560952;40;20386;-75
2021/07/03 05:55:13;;;;;;;26.83;19.70;;;19.00;83.10;;;;;;3558892;40;20407;-75
2021/07/03 05:57:39;;;;;;;28.33;20.45;;;19.10;83.00;;;;;;3562070;40;20029;-75
2021/07/03 06:00:07;;;;;;;31.38;20.85;;;19.20;83.00;;;;;;3565179;40;20407;-75
2021/07/03 06:02:40;;;;;;;28.33;20.00;;;19.30;82.70;;;;;;3562695;40;20721;-75
2021/07/03 06:05:07;;;;;;;30.67;20.42;;;19.40;81.50;;;;;;3560983;40;20954;-75
2021/07/03 06:07:33;;;;;;;30.52;21.85;;;19.50;81.00;;;;;;3556271;40;20033;-75
2021/07/03 06:09:59;;;;;;;29.95;20.55;;;19.50;80.30;;;;;;3568243;40;20051;-75
2021/07/03 06:12:25;;;;;;;29.73;20.60;;;19.50;81.00;;;;;;3568549;40;20029;-75
2021/07/03 06:14:51;;;;;;;29.77;20.60;;;19.60;80.60;;;;;;3566733;40;20017;-75
2021/07/03 06:17:17;;;;;;;29.10;20.25;;;19.70;80.30;;;;;;3565531;40;20021;-76
2021/07/03 06:19:43;;;;;;;29.75;20.98;;;19.70;80.70;;;;;;3565107;40;20092;-75
2021/07/03 06:22:12;;;;;;;29.60;20.25;;;19.80;80.60;;;;;;3562807;40;20026;-75
2021/07/03 06:24:39;;;;;;;28.63;19.58;;;19.80;80.00;;;;;;3562493;40;20032;-75
2021/07/03 06:27:05;;;;;;;28.30;20.60;;;20.00;80.30;;;;;;3562576;40;20028;-75
2021/07/03 06:29:30;;;;;;;26.65;19.67;;;20.00;78.70;;;;;;3562797;40;20052;-75
2021/07/03 06:31:56;;;;;;;29.25;19.70;;;20.00;79.10;;;;;;3566307;40;20036;-75
2021/07/03 06:34:22;;;;;;;25.50;17.80;;;20.20;79.10;;;;;;3563589;40;20089;-76
2021/07/03 06:36:47;;;;;;;24.55;18.65;;;20.30;78.30;;;;;;3565465;40;20025;-75
2021/07/03 06:39:13;;;;;;;25.13;17.50;;;20.50;78.10;;;;;;3564798;40;20049;-74
2021/07/03 06:41:39;;;;;;;26.83;18.65;;;20.70;77.40;;;;;;3565174;40;20049;-75
2021/07/03 06:44:05;;;;;;;25.30;17.77;;;20.80;76.60;;;;;;3568348;40;20380;-75
2021/07/03 06:46:32;;;;;;;24.95;18.42;;;20.80;76.10;;;;;;3567734;40;20037;-75
2021/07/03 06:48:57;;;;;;;26.17;18.67;;;20.90;76.00;;;;;;3554941;40;20529;-75
2021/07/03 06:51:24;;;;;;;27.08;19.52;;;21.00;75.40;;;;;;3564209;40;20041;-75
2021/07/03 06:53:50;;;;;;;27.25;18.98;;;21.10;74.80;;;;;;3566061;40;20065;-75
2021/07/03 06:56:15;;;;;;;26.42;17.70;;;21.10;74.50;;;;;;3566755;40;20026;-75
2021/07/03 06:58:41;;;;;;;24.15;17.73;;;21.10;73.90;;;;;;3564388;40;20029;-75
2021/07/03 07:01:07;;;;;;;25.85;19.13;;;21.10;74.50;;;;;;3557440;40;20064;-75
2021/07/03 07:03:33;;;;;;;24.75;18.27;;;21.10;74.50;;;;;;3556261;40;20030;-66
2021/07/03 07:05:58;;;;;;;24.13;17.70;;;21.20;74.80;;;;;;3565939;40;20033;-66
2021/07/03 07:08:27;;;;;;;29.15;19.17;;;21.30;74.20;;;;;;3563594;40;20408;-67
2021/07/03 07:10:53;;;;;;;32.35;19.83;;;21.40;72.70;;;;;;3564864;40;20865;-67
2021/07/03 07:13:19;;;;;;;28.70;19.45;;;21.30;72.40;;;;;;3564922;40;20037;-67
2021/07/03 07:15:44;;;;;;;23.02;17.27;;;21.30;72.90;;;;;;3562603;40;20034;-67
2021/07/03 07:18:10;;;;;;;23.23;17.63;;;21.30;74.40;;;;;;3564298;40;20066;-67
2021/07/03 07:20:36;;;;;;;27.20;18.10;;;21.40;73.80;;;;;;3565727;40;20650;-67
2021/07/03 07:23:01;;;;;;;30.42;19.50;;;21.60;73.20;;;;;;3565869;40;20041;-67
2021/07/03 07:25:27;;;;;;;27.70;18.95;;;21.70;71.30;;;;;;3563704;40;20047;-67
2021/07/03 07:27:53;;;;;;;25.80;17.63;;;21.80;71.00;;;;;;3565250;40;20110;-66
2021/07/03 07:30:19;;;;;;;25.80;18.70;;;21.70;71.80;;;;;;3565074;40;20130;-66
2021/07/03 07:32:46;;;;;;;24.25;18.40;;;21.80;71.50;;;;;;3567385;40;20029;-74
2021/07/03 07:35:12;;;;;;;31.00;18.45;;;21.90;71.00;;;;;;3560645;40;20025;-74
2021/07/03 07:37:38;;;;;;;25.55;18.42;;;21.90;71.00;;;;;;3564903;40;20065;-74
2021/07/03 07:40:04;;;;;;;29.58;18.17;;;22.00;70.30;;;;;;3562012;40;20029;-73
2021/07/03 07:42:30;;;;;;;20.77;15.30;;;22.00;70.30;;;;;;3563687;40;20205;-74
2021/07/03 07:44:56;;;;;;;26.10;17.00;;;22.10;70.60;;;;;;3564448;40;20118;-73
2021/07/03 07:47:21;;;;;;;25.30;17.13;;;22.30;69.90;;;;;;3561748;40;20057;-73
2021/07/03 07:49:47;;;;;;;25.48;17.83;;;22.40;70.00;;;;;;3562184;40;20034;-74
2021/07/03 07:52:13;;;;;;;22.45;17.48;;;22.70;69.30;;;;;;3559437;40;20026;-66
2021/07/03 07:54:39;;;;;;;22.73;17.50;;;22.80;68.80;;;;;;3562697;40;20045;-75
2021/07/03 07:57:04;;;;;;;31.98;17.85;;;22.90;68.40;;;;;;3563660;40;20021;-74
2021/07/03 07:59:30;;;;;;;21.35;17.25;;;22.90;67.90;;;;;;3563170;40;20847;-73
2021/07/03 08:01:56;;;;;;;19.92;15.02;;;22.80;67.80;;;;;;3563776;40;20124;-73
2021/07/03 08:04:22;;;;;;;21.52;14.93;;;22.70;67.50;;;;;;3566682;40;20141;-75
2021/07/03 08:06:48;;;;;;;21.65;15.95;;;22.80;67.00;;;;;;3568887;40;20033;-74
2021/07/03 08:09:13;;;;;;;20.40;14.65;;;22.90;66.80;;;;;;3563038;40;20025;-74
2021/07/03 08:11:39;;;;;;;21.00;13.85;;;22.90;67.70;;;;;;3565170;40;20041;-74
2021/07/03 08:14:05;;;;;;;19.90;14.30;;;22.80;67.80;;;;;;3562085;40;20661;-75
2021/07/03 08:16:30;;;;;;;17.67;13.75;;;22.90;67.10;;;;;;3564594;40;20024;-75
2021/07/03 08:18:56;;;;;;;21.25;14.38;;;23.00;67.20;;;;;;3565620;40;20026;-75
2021/07/03 08:21:22;;;;;;;21.83;13.55;;;23.10;65.80;;;;;;3564170;40;20037;-75
2021/07/03 08:23:48;;;;;;;26.40;16.48;;;23.20;66.60;;;;;;3560099;40;21065;-75
2021/07/03 08:26:14;;;;;;;18.33;12.88;;;23.30;64.60;;;;;;3563870;40;20045;-75
2021/07/03 08:28:40;;;;;;;19.25;13.05;;;23.40;64.90;;;;;;3563663;40;20029;-75
2021/07/03 08:31:06;;;;;;;17.23;11.65;;;23.50;65.10;;;;;;3563048;40;20025;-75
2021/07/03 08:33:32;;;;;;;17.85;11.88;;;23.70;65.00;;;;;;3565321;40;20044;-68
2021/07/03 08:35:58;;;;;;;16.65;12.02;;;23.80;63.20;;;;;;3567890;40;20414;-72
2021/07/03 08:38:24;;;;;;;18.17;13.23;;;23.80;62.50;;;;;;3562122;40;20044;-74
2021/07/03 08:40:50;;;;;;;22.95;13.77;;;23.90;61.80;;;;;;3562239;40;20061;-75
2021/07/03 08:43:16;;;;;;;18.80;12.02;;;23.80;63.20;;;;;;3559686;40;20032;-74
2021/07/03 08:45:42;;;;;;;14.90;10.45;;;23.80;63.50;;;;;;3563840;40;20039;-74
2021/07/03 08:48:08;;;;;;;15.60;10.75;;;23.90;62.40;;;;;;3565248;40;20041;-70
2021/07/03 08:50:34;;;;;;;17.00;10.82;;;24.00;62.70;;;;;;3565984;40;20061;-73
2021/07/03 08:53:00;;;;;;;16.55;11.85;;;24.00;61.80;;;;;;3566868;40;20024;-74
2021/07/03 08:55:27;;;;;;;13.43;10.30;;;24.00;60.70;;;;;;3561641;40;20022;-73
2021/07/03 08:58:03;;;;;;;12.13;9.68;;;23.90;61.90;;;;;;3564748;40;20029;-74
2021/07/03 09:00:37;;;;;;;13.65;9.35;;;24.00;61.30;;;;;;3564597;40;20021;-74
2021/07/03 09:03:18;;;;;;;12.77;8.82;;;24.10;61.40;;;;;;3565091;40;20081;-74
2021/07/03 09:05:54;;;;;;;13.10;9.68;;;24.10;60.30;;;;;;3564343;40;20041;-74
2021/07/03 09:08:25;;;;;;;13.27;10.00;;;24.30;58.90;;;;;;3561216;40;20151;-73
2021/07/03 09:11:01;;;;;;;13.77;9.40;;;24.30;58.30;;;;;;3567108;40;20036;-74
2021/07/03 09:13:27;;;;;;;11.65;9.25;;;24.30;59.30;;;;;;3566281;40;20037;-73
2021/07/03 09:15:52;;;;;;;13.00;9.73;;;24.30;60.00;;;;;;3567296;40;20040;-70
2021/07/03 09:18:19;;;;;;;12.65;8.68;;;24.30;60.00;;;;;;3565091;40;20501;-72
2021/07/03 09:20:52;;;;;;;9.75;8.15;;;24.30;60.10;;;;;;3564132;40;20405;-74
2021/07/03 09:23:22;;;;;;;11.68;7.47;;;24.30;59.40;;;;;;3566002;40;20759;-74
2021/07/03 09:25:52;;;;;;;11.32;7.30;;;24.30;58.60;;;;;;3564133;40;20367;-73
2021/07/03 09:28:23;;;;;;;12.70;8.77;;;24.20;56.50;;;;;;3568517;40;20067;-73
2021/07/03 09:30:58;;;;;;;13.10;8.27;;;24.10;57.50;;;;;;3568160;40;20045;-70
2021/07/03 09:33:26;;;;;;;10.10;7.25;;;24.00;58.20;;;;;;3567184;40;20490;-73
2021/07/03 09:36:04;;;;;;;9.77;5.63;;;24.00;58.40;;;;;;3563162;40;20671;-74
2021/07/03 09:38:38;;;;;;;8.55;7.07;;;24.10;56.00;;;;;;3564531;40;20473;-74
2021/07/03 09:41:10;;;;;;;11.10;7.10;;;24.10;57.50;;;;;;3563790;40;20069;-74
2021/07/03 09:43:49;;;;;;;10.60;7.10;;;24.10;57.80;;;;;;3561114;40;20048;-74
2021/07/03 09:46:24;;;;;;;9.05;7.90;;;24.10;58.50;;;;;;3559614;40;20041;-74
2021/07/03 09:48:51;;;;;;;15.30;8.00;;;24.20;56.80;;;;;;3562769;40;20033;-74
2021/07/03 09:51:17;;;;;;;9.98;6.65;;;24.20;57.50;;;;;;3565652;40;20017;-73
2021/07/03 09:53:44;;;;;;;7.85;7.03;;;24.10;58.40;;;;;;3564886;40;20030;-74
2021/07/03 09:56:11;;;;;;;7.75;6.05;;;24.20;59.20;;;;;;3563876;40;20112;-73
2021/07/03 09:58:37;;;;;;;6.63;5.70;;;24.20;57.40;;;;;;3566110;40;20577;-74
2021/07/03 10:01:03;;;;;;;7.93;6.88;;;24.20;57.40;;;;;;3565208;40;20049;-75
2021/07/03 10:03:29;;;;;;;7.28;5.90;;;24.40;57.90;;;;;;3564458;40;20795;-74
2021/07/03 10:05:58;;;;;;;8.25;6.60;;;24.50;58.00;;;;;;3563349;40;20041;-68
2021/07/03 10:08:26;;;;;;;13.98;7.32;;;24.40;57.20;;;;;;3563110;40;20032;-69
2021/07/03 10:10:57;;;;;;;9.40;6.65;;;24.30;57.40;;;;;;3562178;40;20737;-73
2021/07/03 10:13:24;;;;;;;7.40;5.75;;;24.30;57.30;;;;;;3562103;40;20046;-73
2021/07/03 10:16:00;;;;;;;7.75;6.00;;;24.40;56.10;;;;;;3560741;40;20045;-73
2021/07/03 10:18:26;;;;;;;8.93;5.75;;;24.40;55.00;;;;;;3559955;40;20029;-74
2021/07/03 10:20:53;;;;;;;9.27;7.00;;;24.40;56.00;;;;;;3559541;40;20122;-73
2021/07/03 10:23:19;;;;;;;9.95;6.45;;;24.40;56.20;;;;;;3561510;40;20130;-73
2021/07/03 10:25:49;;;;;;;9.43;6.78;;;24.50;56.90;;;;;;3561603;40;20808;-70
2021/07/03 10:28:17;;;;;;;8.75;6.43;;;24.60;56.80;;;;;;3563956;40;20130;-71
2021/07/03 10:30:45;;;;;;;9.98;6.40;;;24.60;57.00;;;;;;3566945;40;20057;-73
2021/07/03 10:33:23;;;;;;;7.93;6.30;;;24.70;55.80;;;;;;3564034;40;20142;-71
2021/07/03 10:35:56;;;;;;;7.22;6.28;;;24.80;54.30;;;;;;3562164;40;20030;-73
2021/07/03 10:38:42;;;;;;;7.78;5.93;;;24.90;54.40;;;;;;3562269;40;20666;-73
2021/07/03 10:41:19;;;;;;;;;;;24.70;55.60;;;;;;3565909;40;20568;-72
2021/07/03 10:43:46;;;;;;;6.35;5.07;;;24.80;55.90;;;;;;3565424;40;20464;-73
2021/07/03 10:46:11;;;;;;;9.23;5.60;;;24.90;55.50;;;;;;3562702;40;20029;-73
2021/07/03 10:48:37;;;;;;;7.97;5.68;;;25.00;55.50;;;;;;3564390;40;20072;-73
2021/07/03 10:51:12;;;;;;;7.55;4.97;;;25.00;54.50;;;;;;3567963;40;20039;-72
2021/07/03 10:53:38;;;;;;;6.60;4.97;;;24.90;54.00;;;;;;3566286;40;20196;-73
2021/07/03 10:56:11;;;;;;;5.95;4.57;;;24.90;53.90;;;;;;3567619;40;20028;-73
2021/07/03 10:58:39;;;;;;;7.47;4.38;;;25.20;51.50;;;;;;3566604;40;20040;-73
2021/07/03 11:01:15;;;;;;;4.57;4.03;;;25.50;50.40;;;;;;3561422;40;20621;-72
2021/07/03 11:03:49;;;;;;;6.72;4.70;;;25.50;50.80;;;;;;3560482;40;20044;-72
2021/07/03 11:06:20;;;;;;;5.20;3.75;;;25.60;50.30;;;;;;3562774;40;20052;-73
2021/07/03 11:08:46;;;;;;;6.53;5.00;;;25.60;51.60;;;;;;3566893;40;20071;-73
2021/07/03 11:11:14;;;;;;;6.78;4.53;;;25.70;50.10;;;;;;3565510;40;20551;-73
2021/07/03 11:13:41;;;;;;;6.00;4.53;;;25.60;50.90;;;;;;3563754;40;20049;-72
2021/07/03 11:16:09;;;;;;;5.20;4.32;;;25.50;50.30;;;;;;3562854;40;20869;-72
2021/07/03 11:18:43;;;;;;;5.25;4.68;;;25.40;51.70;;;;;;3563091;40;20351;-73
2021/07/03 11:21:13;;;;;;;7.10;4.80;;;25.40;51.40;;;;;;3563953;40;20021;-74
2021/07/03 11:23:38;;;;;;;5.95;4.45;;;25.40;51.30;;;;;;3567030;40;20044;-73
2021/07/03 11:26:09;;;;;;;9.60;4.88;;;25.40;49.40;;;;;;3566313;40;20034;-72
2021/07/03 11:28:35;;;;;;;7.63;4.32;;;25.50;50.30;;;;;;3556422;40;20119;-73
2021/07/03 11:31:01;;;;;;;6.55;4.50;;;25.50;50.80;;;;;;3564846;40;20033;-72
2021/07/03 11:33:32;;;;;;;7.25;4.20;;;25.40;50.20;;;;;;3564395;40;20035;-73
2021/07/03 11:35:59;;;;;;;7.97;4.45;;;25.20;51.40;;;;;;3562136;40;20746;-73
2021/07/03 11:38:26;;;;;;;5.28;4.55;;;25.10;51.90;;;;;;3563346;40;20396;-73
2021/07/03 11:40:53;;;;;;;6.00;4.45;;;25.20;51.80;;;;;;3567069;40;20041;-73
2021/07/03 11:43:21;;;;;;;7.00;4.72;;;25.10;52.00;;;;;;3567886;40;20041;-73
2021/07/03 11:45:47;;;;;;;6.13;4.97;;;25.10;51.80;;;;;;3568476;40;20025;-73
2021/07/03 11:48:18;;;;;;;5.88;4.65;;;25.10;52.10;;;;;;3564579;40;20115;-73
2021/07/03 11:50:48;;;;;;;5.07;3.95;;;25.10;53.40;;;;;;3564825;40;20033;-73
2021/07/03 11:53:16;;;;;;;4.70;4.22;;;25.10;52.10;;;;;;3562779;40;20037;-73
2021/07/03 11:55:50;;;;;;;5.75;4.05;;;25.20;49.30;;;;;;3561417;40;20031;-73
2021/07/03 11:58:18;;;;;;;5.80;4.43;;;25.20;49.50;;;;;;3562341;40;20026;-73
2021/07/03 12:00:47;;;;;;;5.45;4.60;;;25.30;51.60;;;;;;3562170;40;20077;-73
2021/07/03 12:03:14;;;;;;;7.43;4.70;;;25.30;49.60;;;;;;3567313;40;20055;-73
2021/07/03 12:06:06;;;;;;;5.07;4.57;;;25.40;51.10;;;;;;3566031;40;20025;-73
2021/07/03 12:08:46;;;;;;;5.50;4.32;;;25.40;50.70;;;;;;3565611;40;20443;-73
2021/07/03 12:11:14;;;;;;;4.95;4.15;;;25.60;50.50;;;;;;3562142;40;20040;-74
2021/07/03 12:13:47;;;;;;;6.07;3.95;;;25.60;49.80;;;;;;3564266;40;20119;-74
2021/07/03 12:16:14;;;;;;;5.78;3.85;;;25.60;49.80;;;;;;3563480;40;20146;-74
2021/07/03 12:18:40;;;;;;;8.18;3.65;;;25.50;48.80;;;;;;3567001;40;20055;-74
2021/07/03 12:21:20;;;;;;;6.57;3.65;;;25.60;48.20;;;;;;3564970;40;20626;-73
2021/07/03 12:23:46;;;;;;;5.72;4.25;;;25.50;48.90;;;;;;3564484;40;20516;-74
2021/07/03 12:26:14;;;;;;;3.85;3.50;;;25.60;48.70;;;;;;3565071;40;20041;-73
2021/07/03 12:29:01;;;;;;;4.57;4.18;;;25.60;49.30;;;;;;3566857;40;20044;-73
2021/07/03 12:31:38;;;;;;;6.63;4.13;;;25.60;50.50;;;;;;3566602;40;20205;-74
2021/07/03 12:34:13;;;;;;;5.47;4.10;;;25.60;51.10;;;;;;3561783;40;20698;-74
2021/07/03 12:36:42;;;;;;;5.78;3.80;;;25.50;50.10;;;;;;3566737;40;20126;-73